createdAt,value
2018-06-28T00:01:25.005Z,43.10
2018-06-28T00:03:55.669Z,53.33
2018-06-28T00:06:26.273Z,48.67
2018-06-28T00:08:57.094Z,54.93
2018-06-28T00:11:27.695Z,50.93
2018-06-28T00:13:57.575Z,52.20
2018-06-28T00:16:27.966Z,49.83
2018-06-28T00:18:58.500Z,48.30
2018-06-28T00:21:29.294Z,42.30
2018-06-28T00:24:00.052Z,43.03
2018-06-28T00:26:30.461Z,44.73
2018-06-28T00:29:00.866Z,42.27
2018-06-28T00:31:31.449Z,41.43
2018-06-28T00:34:02.316Z,43.07
2018-06-28T00:36:32.714Z,38.87
2018-06-28T00:39:03.461Z,45.10
2018-06-28T00:41:33.476Z,34.17
2018-06-28T00:44:04.125Z,38.63
2018-06-28T00:46:34.667Z,35.77
2018-06-28T00:49:05.754Z,34.73
2018-06-28T00:51:35.605Z,34.13
2018-06-28T00:54:06.086Z,31.77
2018-06-28T00:56:36.876Z,33.20
2018-06-28T00:59:07.448Z,30.87
2018-06-28T01:01:38.039Z,30.13
2018-06-28T01:04:08.590Z,29.43
2018-06-28T01:06:39.132Z,32.63
2018-06-28T01:09:11.745Z,34.37
2018-06-28T01:11:42.624Z,30.00
2018-06-28T01:14:13.445Z,35.63
2018-06-28T01:16:44.084Z,35.23
2018-06-28T01:19:14.468Z,40.67
2018-06-28T01:21:44.987Z,37.17
2018-06-28T01:24:15.728Z,39.33
2018-06-28T01:26:46.282Z,39.40
2018-06-28T01:29:17.065Z,42.20
2018-06-28T01:31:47.761Z,39.37
2018-06-28T01:34:18.616Z,36.77
2018-06-28T01:36:49.147Z,37.10
2018-06-28T01:39:20.073Z,34.80
2018-06-28T01:42:01.392Z,31.80
2018-06-28T01:44:31.380Z,38.13
2018-06-28T01:47:01.690Z,39.20
2018-06-28T01:49:31.619Z,32.13
2018-06-28T01:52:02.197Z,30.43
2018-06-28T01:54:32.992Z,40.43
2018-06-28T01:57:03.473Z,36.17
2018-06-28T01:59:34.050Z,33.40
2018-06-28T02:02:04.608Z,32.30
2018-06-28T02:04:35.114Z,33.90
2018-06-28T02:07:05.733Z,40.90
2018-06-28T02:09:36.359Z,34.47
2018-06-28T02:12:06.883Z,39.73
2018-06-28T02:14:37.521Z,36.43
2018-06-28T02:17:08.185Z,37.10
2018-06-28T02:19:38.793Z,41.67
2018-06-28T02:22:09.498Z,43.37
2018-06-28T02:24:40.342Z,38.40
2018-06-28T02:27:10.916Z,39.40
2018-06-28T02:29:41.453Z,39.27
2018-06-28T02:32:11.422Z,37.00
2018-06-28T02:34:41.790Z,25.97
2018-06-28T02:37:12.382Z,29.93
2018-06-28T02:39:42.917Z,42.33
2018-06-28T02:42:13.374Z,47.00
2018-06-28T02:44:44.051Z,53.33
2018-06-28T02:47:14.596Z,65.87
2018-06-28T02:49:45.093Z,49.60
2018-06-28T02:52:15.664Z,43.80
2018-06-28T02:54:46.231Z,45.50
2018-06-28T02:57:17.025Z,46.03
2018-06-28T02:59:47.550Z,49.07
2018-06-28T03:02:18.026Z,46.50
2018-06-28T03:04:48.563Z,43.77
2018-06-28T03:07:19.137Z,41.43
2018-06-28T03:09:49.989Z,43.00
2018-06-28T03:12:20.728Z,40.37
2018-06-28T03:14:51.348Z,36.63
2018-06-28T03:17:21.977Z,30.10
2018-06-28T03:19:52.766Z,26.40
2018-06-28T03:22:23.251Z,27.90
2018-06-28T03:24:54.074Z,24.97
2018-06-28T03:27:24.490Z,28.00
2018-06-28T03:29:55.111Z,25.23
2018-06-28T03:32:25.023Z,21.10
2018-06-28T03:34:55.297Z,21.50
2018-06-28T03:37:25.849Z,22.30
2018-06-28T03:39:56.422Z,20.53
2018-06-28T03:42:26.874Z,22.40
2018-06-28T03:44:57.533Z,36.73
2018-06-28T03:47:28.352Z,33.47
2018-06-28T03:49:59.035Z,27.40
2018-06-28T03:52:29.479Z,28.60
2018-06-28T03:55:00.057Z,35.43
2018-06-28T03:57:30.728Z,23.23
2018-06-28T04:00:01.219Z,25.37
2018-06-28T04:02:38.088Z,34.67
2018-06-28T04:05:08.810Z,30.20
2018-06-28T04:07:38.766Z,31.03
2018-06-28T04:10:09.193Z,33.00
2018-06-28T04:12:39.831Z,40.17
2018-06-28T04:15:10.489Z,47.10
2018-06-28T04:17:41.143Z,40.07
2018-06-28T04:20:11.813Z,35.30
2018-06-28T04:22:42.375Z,43.30
2018-06-28T04:25:12.292Z,43.30
2018-06-28T04:27:42.678Z,43.73
2018-06-28T04:30:15.987Z,46.23
2018-06-28T04:32:46.657Z,43.50
2018-06-28T04:35:17.094Z,38.40
2018-06-28T04:37:47.652Z,35.30
2018-06-28T04:40:18.233Z,26.63
2018-06-28T04:42:48.928Z,37.30
2018-06-28T04:45:19.577Z,26.20
2018-06-28T04:47:50.551Z,30.17
2018-06-28T04:50:21.290Z,33.20
2018-06-28T04:52:52.114Z,25.87
2018-06-28T04:55:22.012Z,30.80
2018-06-28T04:57:52.458Z,21.47
2018-06-28T05:00:23.018Z,40.60
2018-06-28T05:02:53.479Z,36.00
2018-06-28T05:05:24.061Z,32.77
2018-06-28T05:07:54.495Z,29.07
2018-06-28T05:10:24.946Z,45.37
2018-06-28T05:12:55.657Z,42.90
2018-06-28T05:15:26.113Z,34.30
2018-06-28T05:17:56.501Z,25.60
2018-06-28T05:20:26.983Z,34.03
2018-06-28T05:22:56.970Z,31.97
2018-06-28T05:25:27.471Z,46.00
2018-06-28T05:27:57.941Z,39.33
2018-06-28T05:30:28.541Z,41.47
2018-06-28T05:32:59.407Z,39.07
2018-06-28T05:35:30.293Z,41.83
2018-06-28T05:38:00.952Z,44.87
2018-06-28T05:40:31.571Z,34.23
2018-06-28T05:43:02.081Z,26.00
2018-06-28T05:45:32.870Z,23.43
2018-06-28T05:48:03.350Z,33.77
2018-06-28T05:50:33.984Z,23.77
2018-06-28T05:53:04.772Z,25.43
2018-06-28T05:55:35.566Z,20.53
2018-06-28T05:58:06.323Z,33.07
2018-06-28T06:00:37.028Z,38.40
2018-06-28T06:03:07.532Z,33.70
2018-06-28T06:05:38.051Z,41.63
2018-06-28T06:08:07.917Z,42.70
2018-06-28T06:10:38.276Z,31.13
2018-06-28T06:13:08.960Z,25.37
2018-06-28T06:15:39.519Z,29.67
2018-06-28T06:18:10.077Z,25.77
2018-06-28T06:20:40.608Z,20.57
2018-06-28T06:23:16.822Z,44.13
2018-06-28T06:25:47.243Z,34.50
2018-06-28T06:28:17.671Z,63.23
2018-06-28T06:30:48.429Z,83.20
2018-06-28T06:33:19.061Z,36.33
2018-06-28T06:35:49.760Z,30.13
2018-06-28T06:38:20.359Z,20.60
2018-06-28T06:40:51.122Z,21.20
2018-06-28T06:43:21.630Z,17.33
2018-06-28T06:45:52.382Z,19.17
2018-06-28T06:48:22.935Z,14.87
2018-06-28T06:50:53.749Z,16.93
2018-06-28T06:53:24.298Z,13.60
2018-06-28T06:55:54.800Z,13.70
2018-06-28T06:58:26.052Z,22.27
2018-06-28T07:00:56.559Z,23.70
2018-06-28T07:03:27.069Z,22.73
2018-06-28T07:05:57.501Z,16.17
2018-06-28T07:08:28.153Z,30.47
2018-06-28T07:10:58.241Z,35.93
2018-06-28T07:13:28.957Z,22.93
2018-06-28T07:15:59.435Z,37.80
2018-06-28T07:18:29.285Z,39.10
2018-06-28T07:20:59.731Z,38.43
2018-06-28T07:23:30.398Z,52.27
2018-06-28T07:26:00.920Z,35.80
2018-06-28T07:28:31.464Z,30.80
2018-06-28T07:31:02.028Z,47.37
2018-06-28T07:33:32.765Z,33.97
2018-06-28T07:36:03.356Z,53.17
2018-06-28T07:38:33.960Z,59.57
2018-06-28T07:41:03.868Z,54.97
2018-06-28T07:43:34.738Z,31.13
2018-06-28T07:46:05.615Z,22.03
2018-06-28T07:48:36.210Z,29.20
2018-06-28T07:51:06.576Z,45.90
2018-06-28T07:53:37.320Z,133.30
2018-06-28T07:56:07.919Z,32.67
2018-06-28T07:58:38.654Z,27.53
2018-06-28T08:01:09.166Z,32.30
2018-06-28T08:03:39.717Z,26.80
2018-06-28T08:06:10.278Z,39.90
2018-06-28T08:08:40.273Z,32.97
2018-06-28T08:11:10.746Z,29.93
2018-06-28T08:13:41.485Z,34.10
2018-06-28T08:16:11.925Z,21.10
2018-06-28T08:18:42.725Z,29.77
2018-06-28T08:21:13.517Z,34.20
2018-06-28T08:23:44.261Z,27.07
2018-06-28T08:26:14.883Z,25.10
2018-06-28T08:28:45.269Z,36.13
2018-06-28T08:31:15.942Z,28.20
2018-06-28T08:33:46.542Z,19.73
2018-06-28T08:36:16.424Z,37.70
2018-06-28T08:38:46.830Z,32.67
2018-06-28T08:41:17.798Z,38.90
2018-06-28T08:43:48.629Z,32.93
2018-06-28T08:46:19.095Z,28.37
2018-06-28T08:48:49.614Z,51.33
2018-06-28T08:51:20.276Z,43.63
2018-06-28T08:53:50.925Z,35.43
2018-06-28T08:56:21.418Z,36.63
2018-06-28T08:58:51.975Z,21.53
2018-06-28T09:01:22.462Z,28.03
2018-06-28T09:03:52.868Z,16.47
2018-06-28T09:06:23.411Z,25.40
2018-06-28T09:08:54.210Z,15.47
2018-06-28T09:11:24.970Z,19.33
2018-06-28T09:13:55.487Z,17.80
2018-06-28T09:16:25.995Z,18.50
2018-06-28T09:18:56.449Z,23.03
2018-06-28T09:21:27.039Z,17.40
2018-06-28T09:23:57.840Z,20.60
2018-06-28T09:26:28.969Z,23.80
2018-06-28T09:28:59.618Z,23.07
2018-06-28T09:31:30.193Z,21.50
2018-06-28T09:34:00.750Z,20.50
2018-06-28T09:36:31.533Z,19.97
2018-06-28T09:39:02.184Z,19.80
2018-06-28T09:41:32.879Z,17.17
2018-06-28T09:44:03.511Z,17.73
2018-06-28T09:46:34.278Z,23.47
2018-06-28T09:49:04.852Z,19.00
2018-06-28T09:51:35.329Z,22.40
2018-06-28T09:54:05.983Z,15.60
2018-06-28T09:56:36.545Z,16.20
2018-06-28T09:59:07.063Z,49.63
2018-06-28T10:01:37.591Z,28.83
2018-06-28T10:04:08.280Z,36.53
2018-06-28T10:06:38.181Z,24.47
2018-06-28T10:09:10.305Z,23.70
2018-06-28T10:11:41.349Z,18.20
2018-06-28T10:14:12.225Z,59.13
2018-06-28T10:16:42.990Z,20.23
2018-06-28T10:19:13.437Z,21.70
2018-06-28T10:21:44.009Z,15.60
2018-06-28T10:24:13.939Z,16.60
2018-06-28T10:26:44.907Z,18.83
2018-06-28T10:29:15.843Z,20.90
2018-06-28T10:31:46.369Z,20.17
2018-06-28T10:34:16.861Z,17.63
2018-06-28T10:36:46.670Z,25.57
2018-06-28T10:39:17.101Z,15.67
2018-06-28T10:41:46.978Z,24.43
2018-06-28T10:44:17.377Z,20.47
2018-06-28T10:46:47.839Z,14.43
2018-06-28T10:49:18.641Z,17.27
2018-06-28T10:51:49.578Z,15.73
2018-06-28T10:54:19.949Z,17.73
2018-06-28T10:56:51.440Z,12.60
2018-06-28T10:59:22.057Z,15.03
2018-06-28T11:01:52.756Z,14.60
2018-06-28T11:04:23.603Z,18.73
2018-06-28T11:06:54.376Z,22.50
2018-06-28T11:09:24.895Z,26.00
2018-06-28T11:11:54.948Z,18.30
2018-06-28T11:14:25.690Z,15.80
2018-06-28T11:16:56.256Z,14.47
2018-06-28T11:19:26.178Z,24.13
2018-06-28T11:21:56.588Z,24.20
2018-06-28T11:24:27.173Z,19.10
2018-06-28T11:26:58.082Z,16.87
2018-06-28T11:29:28.798Z,21.07
2018-06-28T11:31:58.719Z,19.53
2018-06-28T11:34:29.114Z,21.13
2018-06-28T11:36:59.703Z,17.63
2018-06-28T11:39:30.441Z,13.93
2018-06-28T11:42:01.093Z,16.43
2018-06-28T11:44:31.902Z,9.17
2018-06-28T11:47:02.547Z,13.87
2018-06-28T11:49:33.053Z,28.77
2018-06-28T11:52:03.516Z,7.07
2018-06-28T11:54:34.340Z,8.40
2018-06-28T11:57:05.076Z,10.53
2018-06-28T11:59:35.632Z,8.33
2018-06-28T12:02:06.346Z,6.50
2018-06-28T12:04:37.137Z,5.50
2018-06-28T12:07:07.827Z,5.97
2018-06-28T12:09:38.315Z,7.23
2018-06-28T12:12:08.908Z,7.00
2018-06-28T12:14:39.796Z,9.57
2018-06-28T12:17:10.493Z,7.17
2018-06-28T12:19:41.041Z,7.63
2018-06-28T12:22:11.530Z,8.13
2018-06-28T12:24:42.010Z,7.50
2018-06-28T12:27:12.857Z,9.80
2018-06-28T12:29:43.340Z,9.17
2018-06-28T12:32:13.795Z,7.90
2018-06-28T12:34:44.386Z,11.53
2018-06-28T12:37:15.200Z,6.37
2018-06-28T12:39:45.705Z,8.33
2018-06-28T12:42:16.116Z,6.93
2018-06-28T12:44:46.776Z,8.83
2018-06-28T12:47:39.324Z,6.97
2018-06-28T12:50:09.904Z,8.47
2018-06-28T12:52:49.620Z,6.57
2018-06-28T12:55:21.340Z,8.73
2018-06-28T12:57:53.696Z,5.90
2018-06-28T13:00:24.287Z,6.23
2018-06-28T13:02:54.745Z,7.80
2018-06-28T13:05:25.632Z,9.73
2018-06-28T13:07:56.306Z,13.40
2018-06-28T13:10:26.911Z,13.70
2018-06-28T13:12:56.817Z,18.00
2018-06-28T13:15:27.704Z,8.70
2018-06-28T13:17:58.537Z,15.70
2018-06-28T13:20:29.357Z,7.73
2018-06-28T13:22:59.992Z,21.03
2018-06-28T13:25:30.570Z,5.20
2018-06-28T13:28:01.404Z,6.80
2018-06-28T13:30:31.968Z,4.83
2018-06-28T13:33:02.821Z,5.03
2018-06-28T13:35:32.797Z,4.50
2018-06-28T13:38:03.145Z,4.43
2018-06-28T13:40:33.785Z,4.17
2018-06-28T13:43:04.428Z,4.60
2018-06-28T13:45:34.932Z,8.40
2018-06-28T13:48:05.603Z,5.43
2018-06-28T13:50:36.203Z,7.60
2018-06-28T13:53:06.907Z,6.93
2018-06-28T13:55:37.430Z,6.20
2018-06-28T13:58:07.949Z,7.50
2018-06-28T14:00:38.529Z,3.80
2018-06-28T14:03:09.219Z,8.00
2018-06-28T14:05:40.322Z,9.47
2018-06-28T14:08:11.105Z,7.37
2018-06-28T14:10:41.735Z,13.23
2018-06-28T14:13:12.336Z,7.87
2018-06-28T14:15:42.922Z,11.13
2018-06-28T14:18:13.463Z,11.13
2018-06-28T14:20:44.644Z,13.73
2018-06-28T14:23:15.237Z,10.10
2018-06-28T14:25:45.955Z,10.83
2018-06-28T14:28:16.446Z,19.90
2018-06-28T14:30:47.147Z,11.33
2018-06-28T14:33:17.211Z,14.87
2018-06-28T14:35:47.571Z,11.80
2018-06-28T14:38:18.353Z,12.20
2018-06-28T14:40:48.916Z,13.53
2018-06-28T14:43:19.472Z,10.60
2018-06-28T14:45:50.477Z,8.83
2018-06-28T14:48:20.981Z,7.60
2018-06-28T14:50:51.455Z,12.77
2018-06-28T14:53:21.922Z,9.80
2018-06-28T14:55:52.687Z,14.10
2018-06-28T14:58:23.316Z,9.23
2018-06-28T15:00:53.941Z,20.37
2018-06-28T15:03:24.377Z,15.63
2018-06-28T15:05:54.968Z,16.57
2018-06-28T15:08:25.424Z,24.07
2018-06-28T15:10:56.065Z,22.47
2018-06-28T15:13:26.647Z,18.43
2018-06-28T15:15:57.231Z,13.07
2018-06-28T15:18:28.073Z,16.13
2018-06-28T15:20:58.760Z,15.40
2018-06-28T15:23:28.584Z,13.43
2018-06-28T15:25:59.088Z,15.40
2018-06-28T15:28:29.832Z,18.20
2018-06-28T15:31:00.390Z,21.37
2018-06-28T15:33:31.359Z,16.73
2018-06-28T15:36:01.884Z,15.70
2018-06-28T15:38:32.454Z,17.20
2018-06-28T15:41:03.116Z,14.67
2018-06-28T15:43:34.065Z,15.03
2018-06-28T15:46:04.671Z,15.40
2018-06-28T15:48:37.440Z,21.03
2018-06-28T15:51:08.253Z,12.43
2018-06-28T15:53:38.796Z,12.60
2018-06-28T15:56:09.528Z,61.37
2018-06-28T15:58:40.590Z,41.00
2018-06-28T16:01:11.066Z,17.53
2018-06-28T16:03:41.639Z,17.53
2018-06-28T16:06:12.550Z,17.93
2018-06-28T16:08:43.207Z,21.07
2018-06-28T16:11:13.783Z,15.77
2018-06-28T16:13:44.436Z,24.97
2018-06-28T16:16:16.559Z,23.20
2018-06-28T16:18:47.064Z,17.00
2018-06-28T16:21:17.672Z,18.47
2018-06-28T16:23:48.071Z,15.83
2018-06-28T16:26:18.580Z,19.63
2018-06-28T16:28:49.466Z,15.97
2018-06-28T16:31:20.092Z,25.80
2018-06-28T16:33:50.716Z,34.30
2018-06-28T16:36:21.345Z,31.37
2018-06-28T16:38:51.867Z,29.80
2018-06-28T16:41:22.451Z,29.90
2018-06-28T16:43:52.868Z,25.13
2018-06-28T16:46:22.877Z,20.10
2018-06-28T16:48:53.283Z,16.90
2018-06-28T16:51:23.908Z,28.80
2018-06-28T16:53:54.570Z,51.80
2018-06-28T16:56:25.084Z,29.23
2018-06-28T16:58:55.596Z,20.83
2018-06-28T17:01:26.262Z,23.90
2018-06-28T17:03:56.774Z,31.97
2018-06-28T17:06:27.479Z,41.33
2018-06-28T17:08:58.212Z,34.87
2018-06-28T17:11:28.997Z,34.27
2018-06-28T17:13:59.593Z,29.17
2018-06-28T17:16:30.102Z,24.40
2018-06-28T17:19:00.591Z,35.20
2018-06-28T17:21:31.292Z,36.13
2018-06-28T17:24:01.193Z,24.57
2018-06-28T17:26:31.624Z,49.67
2018-06-28T17:29:02.204Z,39.70
2018-06-28T17:31:33.043Z,38.33
2018-06-28T17:34:03.985Z,54.47
2018-06-28T17:36:34.536Z,43.83
2018-06-28T17:39:07.052Z,33.23
2018-06-28T17:41:37.085Z,28.03
2018-06-28T17:44:07.604Z,37.77
2018-06-28T17:46:38.084Z,30.57
2018-06-28T17:49:08.556Z,47.87
2018-06-28T17:51:39.155Z,35.20
2018-06-28T17:54:09.771Z,38.93
2018-06-28T17:56:40.505Z,45.50
2018-06-28T17:59:11.130Z,52.33
2018-06-28T18:01:41.792Z,46.93
2018-06-28T18:04:12.394Z,51.60
2018-06-28T18:06:43.647Z,39.90
2018-06-28T18:09:14.284Z,32.23
2018-06-28T18:11:44.773Z,31.30
2018-06-28T18:14:15.280Z,25.83
2018-06-28T18:16:45.804Z,25.83
2018-06-28T18:19:16.389Z,21.37
2018-06-28T18:21:47.011Z,22.20
2018-06-28T18:24:17.750Z,24.93
2018-06-28T18:26:48.445Z,25.47
2018-06-28T18:29:18.966Z,26.73
2018-06-28T18:31:49.501Z,32.80
2018-06-28T18:34:20.065Z,42.77
2018-06-28T18:36:50.742Z,52.10
2018-06-28T18:39:21.653Z,31.73
2018-06-28T18:41:52.246Z,51.17
2018-06-28T18:44:22.854Z,40.93
2018-06-28T18:46:54.078Z,59.73
2018-06-28T18:49:24.650Z,47.70
2018-06-28T18:51:54.767Z,50.40
2018-06-28T18:54:25.143Z,26.73
2018-06-28T18:56:55.685Z,28.73
2018-06-28T18:59:26.161Z,36.77
2018-06-28T19:01:56.822Z,25.93
2018-06-28T19:04:27.359Z,29.97
2018-06-28T19:06:57.939Z,64.63
2018-06-28T19:09:33.447Z,36.17
2018-06-28T19:12:04.156Z,33.93
2018-06-28T19:14:39.469Z,29.23
2018-06-28T19:17:10.254Z,28.93
2018-06-28T19:19:40.691Z,38.67
2018-06-28T19:22:16.127Z,36.33
2018-06-28T19:24:46.945Z,59.03
2018-06-28T19:27:17.894Z,94.83
2018-06-28T19:29:53.293Z,126.33
2018-06-28T19:32:28.855Z,222.20
2018-06-28T19:35:00.131Z,198.83
2018-06-28T19:37:35.924Z,187.37
2018-06-28T19:40:13.083Z,169.83
2018-06-28T19:42:48.557Z,226.07
2018-06-28T19:45:19.059Z,73.43
2018-06-28T19:47:49.614Z,75.40
2018-06-28T19:50:25.099Z,71.43
2018-06-28T19:52:58.156Z,88.47
2018-06-28T19:55:28.938Z,79.40
2018-06-28T19:57:59.516Z,93.73
2018-06-28T20:00:35.222Z,137.27
2018-06-28T20:03:10.641Z,104.87
2018-06-28T20:05:41.650Z,55.90
2018-06-28T20:08:11.695Z,59.13
2018-06-28T20:10:43.131Z,48.07
2018-06-28T20:13:18.726Z,37.07
2018-06-28T20:15:56.049Z,39.20
2018-06-28T20:18:31.339Z,35.60
2018-06-28T20:21:03.247Z,45.00
2018-06-28T20:23:33.829Z,41.07
2018-06-28T20:27:08.543Z,48.97
2018-06-28T20:29:44.022Z,26.87
2018-06-28T20:32:19.443Z,29.73
2018-06-28T20:34:49.891Z,25.60
2018-06-28T20:37:20.468Z,29.30
2018-06-28T20:39:50.275Z,23.43
2018-06-28T20:42:20.701Z,30.90
2018-06-28T20:44:51.195Z,25.20
2018-06-28T20:47:22.065Z,30.00
2018-06-28T20:49:52.500Z,31.33
2018-06-28T20:52:23.121Z,34.23
2018-06-28T20:54:57.184Z,29.53
2018-06-28T20:57:30.750Z,37.37
2018-06-28T21:00:01.329Z,27.37
2018-06-28T21:02:31.832Z,25.07
2018-06-28T21:05:02.369Z,31.27
2018-06-28T21:07:32.838Z,24.83
2018-06-28T21:10:03.292Z,33.70
2018-06-28T21:12:33.724Z,33.37
2018-06-28T21:15:04.565Z,27.40
2018-06-28T21:17:35.076Z,25.17
2018-06-28T21:20:05.614Z,21.70
2018-06-28T21:22:35.924Z,27.10
2018-06-28T21:25:05.691Z,31.17
2018-06-28T21:27:36.074Z,32.67
2018-06-28T21:30:07.122Z,29.07
2018-06-28T21:32:37.894Z,33.43
2018-06-28T21:35:08.634Z,39.73
2018-06-28T21:37:39.126Z,42.90
2018-06-28T21:40:09.583Z,36.90
2018-06-28T21:42:40.158Z,45.23
2018-06-28T21:45:10.674Z,33.37
2018-06-28T21:47:41.028Z,32.00
2018-06-28T21:50:11.620Z,38.13
2018-06-28T21:52:42.146Z,35.93
2018-06-28T21:55:12.552Z,39.07
2018-06-28T21:57:43.060Z,23.63
2018-06-28T22:00:22.136Z,19.43
2018-06-28T22:02:52.789Z,25.20
2018-06-28T22:05:23.257Z,22.10
2018-06-28T22:07:53.867Z,25.80
2018-06-28T22:10:24.353Z,24.00
2018-06-28T22:12:54.823Z,23.90
2018-06-28T22:15:27.329Z,27.17
2018-06-28T22:17:59.214Z,29.57
2018-06-28T22:20:30.819Z,27.63
2018-06-28T22:23:01.358Z,45.70
2018-06-28T22:25:32.217Z,31.00
2018-06-28T22:28:02.788Z,26.90
2018-06-28T22:30:33.387Z,33.20
2018-06-28T22:33:04.002Z,32.00
2018-06-28T22:35:34.559Z,46.93
2018-06-28T22:38:04.479Z,34.87
2018-06-28T22:40:34.998Z,34.40
2018-06-28T22:43:05.634Z,37.70
2018-06-28T22:45:36.010Z,34.73
2018-06-28T22:48:06.652Z,39.57
2018-06-28T22:50:37.137Z,37.20
2018-06-28T22:53:07.739Z,37.27
2018-06-28T22:55:38.524Z,43.07
2018-06-28T22:58:09.046Z,32.77
2018-06-28T23:00:38.845Z,24.60
2018-06-28T23:03:09.434Z,24.30
2018-06-28T23:05:39.480Z,20.90
2018-06-28T23:08:10.024Z,25.53
2018-06-28T23:10:40.569Z,22.70
2018-06-28T23:13:11.263Z,38.50
2018-06-28T23:15:41.819Z,24.07
2018-06-28T23:18:11.767Z,25.33
2018-06-28T23:20:42.432Z,27.00
2018-06-28T23:23:12.870Z,30.03
2018-06-28T23:25:43.485Z,27.13
2018-06-28T23:28:14.002Z,32.03
2018-06-28T23:30:44.648Z,22.70
2018-06-28T23:33:15.147Z,27.10
2018-06-28T23:35:45.679Z,28.73
2018-06-28T23:38:15.535Z,29.97
2018-06-28T23:40:45.922Z,24.57
2018-06-28T23:43:16.421Z,29.67
2018-06-28T23:45:47.000Z,28.30
2018-06-28T23:48:17.752Z,28.80
2018-06-28T23:50:48.293Z,27.77
2018-06-28T23:53:18.846Z,38.43
2018-06-28T23:55:49.270Z,32.67
2018-06-28T23:58:19.083Z,33.67
